Time;durP1;ratioP1;P1;durP2;ratioP2;P2;SDS_P1;SDS_P2;PMS_P1;PMS_P2;Temp;Humidity;BMP_temperature;BMP_pressure;BME280_temperature;BME280_humidity;BME280_pressure;Samples;Min_cycle;Max_cycle;Signal;HPM_P1;HPM_P2
2021/04/14 00:01:54;;;;;;;15.87;11.20;;;2.10;99.90;;;;;;4900763;29;20189;-86
2021/04/14 00:04:20;;;;;;;17.70;9.80;;;2.10;99.90;;;;;;4900636;29;20239;-86
2021/04/14 00:06:45;;;;;;;16.57;10.27;;;2.20;99.90;;;;;;4900783;29;20574;-86
2021/04/14 00:09:12;;;;;;;11.90;8.33;;;3.20;99.90;;;;;;4899392;29;20207;-86
2021/04/14 00:11:38;;;;;;;15.57;10.03;;;2.10;99.90;;;;;;4899412;29;20321;-86
2021/04/14 00:14:06;;;;;;;13.17;8.17;;;2.10;99.90;;;;;;4900958;29;20191;-86
2021/04/14 00:16:32;;;;;;;14.30;8.00;;;2.90;99.90;;;;;;4899850;29;20184;-85
2021/04/14 00:18:57;;;;;;;11.30;8.37;;;2.00;99.90;;;;;;4899595;29;20195;-85
2021/04/14 00:21:24;;;;;;;11.57;8.27;;;2.00;99.90;;;;;;4900482;29;20184;-84
2021/04/14 00:23:52;;;;;;;14.57;8.67;;;3.20;99.90;;;;;;4900811;29;20267;-84
2021/04/14 00:26:18;;;;;;;13.57;9.20;;;1.90;99.90;;;;;;4900526;29;20221;-86
2021/04/14 00:28:43;;;;;;;10.97;8.27;;;2.10;99.90;;;;;;4883830;29;20214;-85
2021/04/14 00:31:09;;;;;;;11.83;8.80;;;2.40;99.90;;;;;;4883908;29;20181;-85
2021/04/14 00:33:35;;;;;;;10.30;8.50;;;2.30;99.90;;;;;;4900137;29;20520;-85
2021/04/14 00:36:02;;;;;;;10.43;7.43;;;3.80;99.90;;;;;;4899285;29;20271;-84
2021/04/14 00:38:28;;;;;;;11.53;7.33;;;2.60;99.90;;;;;;4900175;29;20643;-85
2021/04/14 00:40:57;;;;;;;10.57;7.93;;;3.00;99.90;;;;;;4898692;29;20319;-85
2021/04/14 00:43:29;;;;;;;11.33;8.33;;;1.70;99.90;;;;;;4899454;29;20225;-85
2021/04/14 00:45:56;;;;;;;12.23;8.50;;;1.70;99.90;;;;;;4899755;29;20200;-85
2021/04/14 00:48:22;;;;;;;10.50;7.77;;;2.10;99.90;;;;;;4898256;29;20637;-85
2021/04/14 00:50:48;;;;;;;13.00;8.77;;;1.70;99.90;;;;;;4898664;29;20182;-85
2021/04/14 00:53:14;;;;;;;18.37;8.87;;;1.80;99.90;;;;;;4899885;29;20183;-85
2021/04/14 00:55:40;;;;;;;16.27;10.13;;;2.30;99.90;;;;;;4898525;29;20221;-85
2021/04/14 00:58:08;;;;;;;12.63;9.27;;;2.30;99.90;;;;;;4898289;29;20195;-85
2021/04/14 01:00:40;;;;;;;13.30;8.37;;;2.60;99.90;;;;;;4898124;29;20177;-85
2021/04/14 01:03:13;;;;;;;12.27;10.23;;;1.70;99.90;;;;;;4899606;29;20184;-86
2021/04/14 01:05:39;;;;;;;12.30;9.30;;;3.00;99.90;;;;;;4898009;29;20180;-86
2021/04/14 01:08:05;;;;;;;11.70;8.93;;;2.30;99.90;;;;;;4898593;29;20182;-85
2021/04/14 01:10:31;;;;;;;12.17;7.93;;;1.70;99.90;;;;;;4897536;29;20236;-85
2021/04/14 01:12:56;;;;;;;10.50;7.73;;;3.10;99.90;;;;;;4898244;29;20713;-85
2021/04/14 01:15:31;;;;;;;11.57;8.33;;;3.10;99.90;;;;;;4897765;29;20228;-86
2021/04/14 01:17:57;;;;;;;10.83;8.77;;;1.80;99.90;;;;;;4899671;29;20188;-86
2021/04/14 01:20:24;;;;;;;10.67;7.63;;;1.70;99.90;;;;;;4898798;29;20596;-86
2021/04/14 01:22:50;;;;;;;10.33;7.60;;;3.10;99.90;;;;;;4897607;29;20279;-86
2021/04/14 01:25:21;;;;;;;10.17;8.40;;;1.60;99.90;;;;;;4897674;29;20326;-86
2021/04/14 01:27:46;;;;;;;9.57;7.20;;;1.60;99.90;;;;;;4899379;29;20186;-86
2021/04/14 01:30:23;;;;;;;11.20;7.13;;;2.90;99.90;;;;;;4898104;29;20184;-86
2021/04/14 01:32:49;;;;;;;9.63;7.17;;;1.60;99.90;;;;;;4898881;29;20177;-85
2021/04/14 01:35:15;;;;;;;13.47;7.80;;;1.60;99.90;;;;;;4897753;29;20224;-86
2021/04/14 01:37:41;;;;;;;12.37;6.73;;;3.00;99.90;;;;;;4898917;29;20175;-87
2021/04/14 01:40:11;;;;;;;10.10;7.23;;;2.90;99.90;;;;;;4897994;29;20190;-86
2021/04/14 01:42:38;;;;;;;11.20;6.23;;;1.50;99.90;;;;;;4898683;29;20221;-86
2021/04/14 01:45:05;;;;;;;12.87;7.57;;;1.50;99.90;;;;;;4898883;29;20185;-86
2021/04/14 01:47:31;;;;;;;13.80;7.93;;;1.50;99.90;;;;;;4896896;29;20256;-86
2021/04/14 01:49:56;;;;;;;17.17;11.00;;;1.70;99.90;;;;;;4882039;29;20214;-87
2021/04/14 01:52:22;;;;;;;11.93;7.50;;;1.50;99.90;;;;;;4896993;29;20185;-86
2021/04/14 01:54:48;;;;;;;11.13;7.17;;;1.50;99.90;;;;;;4881859;29;20348;-86
2021/04/14 01:57:13;;;;;;;9.20;6.03;;;1.50;99.90;;;;;;4898625;29;20179;-85
2021/04/14 01:59:39;;;;;;;9.07;5.93;;;1.50;99.90;;;;;;4881547;29;20216;-86
2021/04/14 02:02:05;;;;;;;11.07;6.83;;;2.90;99.90;;;;;;4897321;29;20213;-86
2021/04/14 02:04:31;;;;;;;6.97;6.10;;;1.40;99.90;;;;;;4898231;29;20188;-86
2021/04/14 02:06:57;;;;;;;10.17;5.70;;;1.40;99.90;;;;;;4897301;29;20187;-86
2021/04/14 02:09:22;;;;;;;12.07;7.80;;;1.40;99.90;;;;;;4896786;29;20586;-87
2021/04/14 02:11:48;;;;;;;9.20;6.27;;;1.30;99.90;;;;;;4897096;29;20239;-86
2021/04/14 02:14:14;;;;;;;10.53;6.30;;;2.60;99.90;;;;;;4881459;29;20226;-86
2021/04/14 02:16:39;;;;;;;9.43;6.93;;;1.60;99.90;;;;;;4896777;29;20648;-86
2021/04/14 02:19:05;;;;;;;9.93;6.43;;;1.40;99.90;;;;;;4896844;29;20200;-86
2021/04/14 02:21:31;;;;;;;10.30;7.50;;;3.00;99.90;;;;;;4898157;29;20248;-87
2021/04/14 02:23:58;;;;;;;13.97;7.10;;;1.20;99.90;;;;;;4898729;29;20189;-86
2021/04/14 02:26:24;;;;;;;10.10;6.50;;;1.20;99.90;;;;;;4898152;29;20698;-87
2021/04/14 02:28:51;;;;;;;8.87;6.53;;;1.20;99.90;;;;;;4898477;29;20615;-86
2021/04/14 02:31:29;;;;;;;8.73;7.03;;;1.10;99.90;;;;;;4897992;29;20247;-86
2021/04/14 02:34:22;;;;;;;11.13;5.23;;;1.30;99.90;;;;;;4897949;29;20187;-86
2021/04/14 02:36:47;;;;;;;9.07;6.87;;;1.10;99.90;;;;;;4896129;29;20203;-86
2021/04/14 02:39:13;;;;;;;11.27;7.10;;;1.10;99.90;;;;;;4898418;29;20181;-85
2021/04/14 02:41:39;;;;;;;9.00;6.40;;;1.00;99.90;;;;;;4896465;29;20189;-85
2021/04/14 02:44:06;;;;;;;12.13;7.27;;;1.00;99.90;;;;;;4896751;29;20181;-86
2021/04/14 02:46:32;;;;;;;13.50;7.07;;;2.60;99.90;;;;;;4896399;29;20209;-86
2021/04/14 02:48:57;;;;;;;12.23;7.10;;;1.00;99.90;;;;;;4896960;29;20685;-86
2021/04/14 02:51:24;;;;;;;10.63;7.47;;;1.00;99.90;;;;;;4896601;29;20193;-87
2021/04/14 02:53:50;;;;;;;10.00;6.40;;;1.40;99.90;;;;;;4897706;29;20221;-86
2021/04/14 02:56:16;;;;;;;11.87;7.87;;;0.90;99.90;;;;;;4897866;29;20224;-86
2021/04/14 02:58:41;;;;;;;11.40;7.17;;;1.00;99.90;;;;;;4899685;29;20186;-85
2021/04/14 03:01:07;;;;;;;10.43;6.67;;;1.00;99.90;;;;;;4898588;29;20530;-85
2021/04/14 03:03:33;;;;;;;8.07;6.50;;;2.10;99.90;;;;;;4900014;29;20318;-85
2021/04/14 03:05:59;;;;;;;8.20;5.73;;;0.90;99.90;;;;;;4904143;29;20233;-85
2021/04/14 03:08:24;;;;;;;10.07;7.00;;;0.90;99.90;;;;;;4893090;29;20192;-85
2021/04/14 03:10:50;;;;;;;10.90;7.60;;;1.40;99.90;;;;;;4915921;29;20243;-84
2021/04/14 03:13:17;;;;;;;9.67;6.27;;;1.10;99.90;;;;;;4913665;29;20295;-83
2021/04/14 03:15:43;;;;;;;9.40;6.20;;;2.60;99.90;;;;;;4889001;29;20220;-83
2021/04/14 03:18:15;;;;;;;11.00;6.33;;;2.20;99.90;;;;;;4897833;29;20545;-83
2021/04/14 03:20:42;;;;;;;10.97;6.43;;;1.10;99.90;;;;;;4896183;29;20272;-83
2021/04/14 03:23:12;;;;;;;9.47;6.83;;;0.80;99.90;;;;;;4881014;29;20193;-84
2021/04/14 03:25:38;;;;;;;8.97;6.70;;;0.80;99.90;;;;;;4896092;29;20655;-84
2021/04/14 03:28:05;;;;;;;9.43;7.27;;;0.90;99.90;;;;;;4880902;29;20191;-84
2021/04/14 03:30:31;;;;;;;9.13;6.60;;;0.80;99.90;;;;;;4897622;29;20198;-86
2021/04/14 03:32:57;;;;;;;10.20;6.10;;;0.80;99.90;;;;;;4896440;29;20192;-86
2021/04/14 03:35:24;;;;;;;8.43;7.03;;;1.10;99.90;;;;;;4897946;29;20220;-85
2021/04/14 03:37:50;;;;;;;10.70;6.87;;;0.80;99.90;;;;;;4896601;29;20256;-85
2021/04/14 03:40:17;;;;;;;9.87;7.07;;;0.80;99.90;;;;;;4897942;29;20348;-86
2021/04/14 03:42:43;;;;;;;13.07;8.13;;;2.20;99.90;;;;;;4897405;29;20185;-85
2021/04/14 03:45:16;;;;;;;18.50;10.17;;;0.80;99.90;;;;;;4897165;29;20188;-85
2021/04/14 03:47:43;;;;;;;18.00;10.23;;;0.80;99.90;;;;;;4899411;29;20589;-85
2021/04/14 03:50:12;;;;;;;16.47;9.07;;;0.80;99.90;;;;;;4900319;29;20184;-85
2021/04/14 03:52:38;;;;;;;16.43;9.43;;;0.80;99.90;;;;;;4899602;29;20265;-85
2021/04/14 03:55:06;;;;;;;12.53;9.87;;;2.40;99.90;;;;;;4900108;29;20284;-85
2021/04/14 03:57:32;;;;;;;10.17;8.10;;;0.80;99.90;;;;;;4900096;29;20183;-84
2021/04/14 03:59:57;;;;;;;13.20;8.70;;;0.80;99.90;;;;;;4901231;29;20187;-85
2021/04/14 04:02:23;;;;;;;13.37;10.00;;;2.10;99.90;;;;;;4899761;29;20196;-84
2021/04/14 04:04:49;;;;;;;16.67;11.10;;;1.70;99.90;;;;;;4899157;29;20348;-85
2021/04/14 04:07:14;;;;;;;19.03;10.73;;;0.90;99.90;;;;;;4899401;29;20221;-85
2021/04/14 04:09:40;;;;;;;16.30;10.03;;;0.70;99.90;;;;;;4899007;29;20192;-85
2021/04/14 04:12:09;;;;;;;13.57;9.80;;;2.20;99.90;;;;;;4899269;29;20233;-85
2021/04/14 04:14:42;;;;;;;15.40;9.07;;;0.80;99.90;;;;;;4899150;29;20224;-86
2021/04/14 04:17:08;;;;;;;18.43;12.00;;;0.80;99.90;;;;;;4900832;29;20188;-85
2021/04/14 04:19:34;;;;;;;14.37;9.87;;;0.80;99.90;;;;;;4884157;29;20641;-86
2021/04/14 04:21:59;;;;;;;15.83;10.00;;;1.10;99.90;;;;;;4900338;29;20192;-85
2021/04/14 04:24:26;;;;;;;17.93;11.40;;;0.80;99.90;;;;;;4895808;29;20546;-85
2021/04/14 04:26:52;;;;;;;14.87;9.33;;;0.80;99.90;;;;;;4879924;29;20204;-85
2021/04/14 04:29:17;;;;;;;19.77;9.77;;;2.40;99.90;;;;;;4909136;29;20204;-86
2021/04/14 04:31:43;;;;;;;14.47;9.50;;;1.00;99.90;;;;;;4890246;29;20194;-85
2021/04/14 04:34:08;;;;;;;16.90;10.07;;;0.90;99.90;;;;;;4904913;29;20662;-86
2021/04/14 04:36:34;;;;;;;12.70;9.23;;;0.80;99.90;;;;;;4881045;29;20675;-85
2021/04/14 04:39:00;;;;;;;13.80;10.13;;;0.80;99.90;;;;;;4890374;29;20315;-86
2021/04/14 04:41:25;;;;;;;17.30;12.53;;;0.80;99.90;;;;;;4892042;29;20237;-85
2021/04/14 04:43:51;;;;;;;14.63;11.37;;;0.80;99.90;;;;;;4887476;29;20614;-85
2021/04/14 04:46:17;;;;;;;13.23;9.37;;;0.80;99.90;;;;;;4894247;29;20265;-85
2021/04/14 04:48:42;;;;;;;14.70;11.60;;;1.50;99.90;;;;;;4896266;29;20735;-85
2021/04/14 04:51:08;;;;;;;22.40;14.13;;;0.80;99.90;;;;;;4903657;29;20196;-84
2021/04/14 04:53:34;;;;;;;23.10;13.37;;;2.50;99.90;;;;;;4886296;29;20664;-84
2021/04/14 04:55:59;;;;;;;23.53;13.00;;;0.80;99.90;;;;;;4896254;29;20648;-84
2021/04/14 04:58:25;;;;;;;27.40;14.03;;;1.00;99.90;;;;;;4896202;29;20193;-83
2021/04/14 05:00:51;;;;;;;21.97;13.90;;;1.10;99.90;;;;;;4896614;29;20276;-84
2021/04/14 05:03:21;;;;;;;18.23;11.80;;;0.80;99.90;;;;;;4896805;29;20284;-83
2021/04/14 05:05:46;;;;;;;19.10;10.73;;;0.80;99.90;;;;;;4895786;29;20189;-84
2021/04/14 05:08:12;;;;;;;19.10;12.83;;;0.80;99.90;;;;;;4876105;29;20540;-84
2021/04/14 05:10:39;;;;;;;19.93;10.83;;;1.00;99.90;;;;;;4897120;29;20242;-83
2021/04/14 05:13:06;;;;;;;23.80;13.50;;;1.80;99.90;;;;;;4909523;29;20200;-84
2021/04/14 05:15:34;;;;;;;21.47;12.47;;;0.80;99.90;;;;;;4896201;29;20220;-84
2021/04/14 05:18:00;;;;;;;19.20;12.10;;;1.30;99.90;;;;;;4897800;29;20288;-84
2021/04/14 05:20:27;;;;;;;18.87;12.13;;;2.00;99.90;;;;;;4895535;29;20202;-82
2021/04/14 05:22:54;;;;;;;18.10;12.03;;;2.30;99.90;;;;;;4895922;29;20197;-82
2021/04/14 05:25:22;;;;;;;17.60;11.67;;;2.10;99.90;;;;;;4892392;29;20208;-84
2021/04/14 05:27:51;;;;;;;18.37;11.87;;;0.90;99.90;;;;;;4890605;29;20192;-84
2021/04/14 05:30:17;;;;;;;17.50;10.93;;;1.30;99.90;;;;;;4892674;29;20673;-81
2021/04/14 05:32:43;;;;;;;19.10;12.93;;;0.80;99.90;;;;;;4888282;29;20223;-84
2021/04/14 05:35:09;;;;;;;17.80;10.50;;;1.90;99.90;;;;;;4878469;29;20244;-81
2021/04/14 05:37:35;;;;;;;16.70;10.30;;;0.80;99.90;;;;;;4884258;29;20718;-84
2021/04/14 05:40:01;;;;;;;17.13;11.70;;;0.80;99.90;;;;;;4879446;29;20345;-83
2021/04/14 05:42:27;;;;;;;15.37;10.63;;;0.90;99.90;;;;;;4888311;29;20245;-81
2021/04/14 05:44:53;;;;;;;15.60;10.17;;;1.40;99.90;;;;;;4889583;29;20647;-81
2021/04/14 05:47:18;;;;;;;14.50;10.50;;;1.00;99.90;;;;;;4889293;29;20653;-82
2021/04/14 05:49:44;;;;;;;15.20;10.67;;;0.90;99.90;;;;;;4884240;29;20199;-82
2021/04/14 05:52:10;;;;;;;15.17;10.93;;;0.90;99.90;;;;;;4895365;29;20651;-81
2021/04/14 05:54:35;;;;;;;14.17;9.93;;;0.90;99.90;;;;;;4895244;29;20307;-83
2021/04/14 05:57:01;;;;;;;15.93;10.47;;;1.00;99.90;;;;;;4901112;29;20191;-84
2021/04/14 05:59:27;;;;;;;19.13;11.60;;;1.00;99.90;;;;;;4895307;29;20244;-84
2021/04/14 06:01:52;;;;;;;16.07;11.47;;;1.00;99.90;;;;;;4879451;29;20531;-83
2021/04/14 06:04:18;;;;;;;16.77;10.87;;;1.00;99.90;;;;;;4893349;29;20608;-83
2021/04/14 06:06:44;;;;;;;14.23;9.63;;;2.60;99.90;;;;;;4879033;29;20185;-82
2021/04/14 06:09:10;;;;;;;16.03;11.47;;;1.90;99.90;;;;;;4899983;29;20194;-82
2021/04/14 06:11:40;;;;;;;19.67;12.37;;;1.00;99.90;;;;;;4884611;29;20233;-82
2021/04/14 06:14:06;;;;;;;20.50;11.87;;;1.90;99.90;;;;;;4887131;29;20185;-83
2021/04/14 06:16:31;;;;;;;17.23;12.07;;;1.40;99.90;;;;;;4883746;29;20243;-81
2021/04/14 06:18:57;;;;;;;14.67;11.07;;;0.90;99.90;;;;;;4890699;29;20589;-83
2021/04/14 06:21:25;;;;;;;20.67;13.20;;;2.20;99.90;;;;;;4899489;29;20217;-83
2021/04/14 06:23:53;;;;;;;17.43;13.50;;;2.00;99.90;;;;;;4884373;29;20178;-84
2021/04/14 06:26:37;;;;;;;23.23;14.23;;;2.10;99.90;;;;;;4882050;29;20196;-83
2021/04/14 06:29:03;;;;;;;25.67;15.80;;;1.30;99.90;;;;;;4896934;29;20184;-85
2021/04/14 06:31:30;;;;;;;27.20;16.83;;;1.50;99.90;;;;;;4896827;29;20219;-81
2021/04/14 06:33:56;;;;;;;28.90;17.53;;;0.90;99.90;;;;;;4881161;29;20181;-82
2021/04/14 06:36:22;;;;;;;29.83;18.53;;;2.00;99.90;;;;;;4895693;29;20217;-83
2021/04/14 06:38:51;;;;;;;29.10;18.87;;;0.90;99.90;;;;;;4896887;29;20181;-81
2021/04/14 06:44:09;;;;;;;27.50;16.23;;;1.90;99.90;;;;;;4896552;29;20276;-83
2021/04/14 06:46:35;;;;;;;26.87;17.70;;;0.90;99.90;;;;;;4895718;29;20187;-84
2021/04/14 06:49:19;;;;;;;29.07;17.73;;;2.50;99.90;;;;;;4896380;29;20199;-82
2021/04/14 06:52:09;;;;;;;28.57;16.33;;;1.00;99.90;;;;;;4896559;29;20179;-83
2021/04/14 06:55:05;;;;;;;24.67;15.60;;;0.90;99.90;;;;;;4893703;29;20291;-84
2021/04/14 06:57:46;;;;;;;26.77;16.40;;;1.00;99.90;;;;;;4894554;29;20192;-85
2021/04/14 07:00:20;;;;;;;27.67;17.53;;;1.00;99.90;;;;;;4895738;29;20173;-83
2021/04/14 07:02:51;;;;;;;25.87;16.33;;;0.90;99.90;;;;;;4893766;29;20177;-83
2021/04/14 07:05:25;;;;;;;23.87;15.57;;;1.00;99.90;;;;;;4896658;29;20667;-83
2021/04/14 07:07:55;;;;;;;24.77;15.83;;;1.00;99.90;;;;;;4895739;29;20183;-82
2021/04/14 07:10:30;;;;;;;24.87;17.40;;;1.00;99.90;;;;;;4895953;29;20226;-81
2021/04/14 07:13:01;;;;;;;25.17;15.07;;;2.50;99.90;;;;;;4885875;29;20209;-83
2021/04/14 07:15:27;;;;;;;20.93;15.03;;;1.20;99.90;;;;;;4896828;29;20232;-83
2021/04/14 07:18:24;;;;;;;21.23;14.27;;;1.00;99.90;;;;;;4896384;29;20204;-82
2021/04/14 07:21:12;;;;;;;24.80;16.80;;;1.00;99.90;;;;;;4896408;29;20200;-84
2021/04/14 07:23:56;;;;;;;22.57;16.10;;;1.10;99.90;;;;;;4899639;29;20179;-84
2021/04/14 07:26:40;;;;;;;20.33;13.83;;;1.00;99.90;;;;;;4901317;29;20660;-84
2021/04/14 07:29:43;;;;;;;19.13;14.13;;;1.10;99.90;;;;;;4900197;29;20188;-83
2021/04/14 07:32:32;;;;;;;22.80;14.10;;;1.10;99.90;;;;;;4901691;29;20177;-83
2021/04/14 07:35:11;;;;;;;21.40;15.33;;;2.40;99.90;;;;;;4902788;29;20232;-84
2021/04/14 07:38:03;;;;;;;18.83;12.90;;;1.00;99.90;;;;;;4900072;29;20191;-83
2021/04/14 07:40:39;;;;;;;19.97;12.50;;;1.00;99.90;;;;;;4901051;29;20191;-84
2021/04/14 07:43:13;;;;;;;20.93;12.20;;;1.00;99.90;;;;;;4901008;29;20185;-84
2021/04/14 07:45:40;;;;;;;20.23;13.93;;;2.10;99.90;;;;;;4899428;29;20228;-84
2021/04/14 07:48:08;;;;;;;17.93;11.17;;;1.90;99.90;;;;;;4900570;29;20188;-83
2021/04/14 07:50:46;;;;;;;18.40;11.83;;;1.00;99.90;;;;;;4900528;29;20193;-84
2021/04/14 07:53:36;;;;;;;15.60;10.77;;;1.00;99.90;;;;;;4901943;29;20182;-84
2021/04/14 07:56:05;;;;;;;16.87;10.17;;;2.40;99.90;;;;;;4900751;29;20312;-83
2021/04/14 07:58:32;;;;;;;14.80;10.77;;;1.00;99.90;;;;;;4899648;29;20178;-84
2021/04/14 08:01:10;;;;;;;16.27;9.97;;;2.10;99.90;;;;;;4902114;29;20198;-87
2021/04/14 08:03:35;;;;;;;12.20;8.97;;;1.80;99.90;;;;;;4923309;29;20180;-86
2021/04/14 08:06:09;;;;;;;13.67;9.93;;;1.00;99.90;;;;;;4898689;29;20181;-84
2021/04/14 08:08:35;;;;;;;14.83;9.83;;;0.90;99.90;;;;;;4899949;29;20193;-84
2021/04/14 08:11:11;;;;;;;14.32;11.13;;;0.90;99.90;;;;;;4896240;29;20463;-84
2021/04/14 08:13:41;;;;;;;13.53;10.30;;;0.90;99.90;;;;;;4899353;29;20251;-84
2021/04/14 08:16:34;;;;;;;19.47;9.70;;;0.90;99.90;;;;;;4886121;29;20213;-86
2021/04/14 08:19:05;;;;;;;11.10;8.07;;;2.20;99.90;;;;;;4915206;29;20209;-84
2021/04/14 08:21:35;;;;;;;13.37;8.70;;;0.90;99.90;;;;;;4900464;29;20224;-84
2021/04/14 08:24:12;;;;;;;10.23;7.60;;;0.90;99.90;;;;;;4900696;29;20185;-83
2021/04/14 08:26:48;;;;;;;12.20;9.13;;;0.90;99.90;;;;;;4896880;29;20645;-85
2021/04/14 08:29:16;;;;;;;12.13;8.77;;;2.10;99.90;;;;;;4900356;29;20191;-84
2021/04/14 08:31:46;;;;;;;11.10;8.93;;;2.30;99.90;;;;;;4899906;29;20189;-84
2021/04/14 08:34:18;;;;;;;13.57;9.40;;;0.90;99.90;;;;;;4898384;29;20192;-84
2021/04/14 08:36:59;;;;;;;18.07;12.60;;;0.90;99.90;;;;;;4898452;29;20287;-84
2021/04/14 08:39:32;;;;;;;10.83;8.80;;;0.90;99.90;;;;;;4900095;29;20189;-84
2021/04/14 08:42:06;;;;;;;10.90;7.53;;;2.20;99.90;;;;;;4900862;29;20188;-83
2021/04/14 08:44:35;;;;;;;11.53;6.83;;;0.90;99.90;;;;;;4900229;29;20216;-84
2021/04/14 08:47:26;;;;;;;10.20;7.83;;;0.90;99.90;;;;;;4900272;29;20180;-84
2021/04/14 08:50:30;;;;;;;10.27;7.40;;;0.90;99.90;;;;;;4890737;29;20277;-84
2021/04/14 08:53:02;;;;;;;13.27;9.37;;;0.90;99.90;;;;;;4883752;29;20665;-85
2021/04/14 08:55:28;;;;;;;6.60;5.77;;;0.90;99.90;;;;;;4898448;29;20226;-85
2021/04/14 08:57:57;;;;;;;11.30;7.23;;;2.10;99.90;;;;;;4896183;29;20202;-83
2021/04/14 09:00:24;;;;;;;8.77;5.77;;;0.90;99.90;;;;;;4899128;29;20190;-83
2021/04/14 09:02:53;;;;;;;10.10;6.87;;;0.90;99.90;;;;;;4898864;29;20184;-83
2021/04/14 09:05:22;;;;;;;10.47;6.97;;;2.30;99.90;;;;;;4899693;29;20326;-84
2021/04/14 09:07:49;;;;;;;8.23;7.30;;;2.30;99.90;;;;;;4898168;29;20531;-87
2021/04/14 09:10:39;;;;;;;10.07;6.90;;;2.30;99.90;;;;;;4883411;29;20247;-86
2021/04/14 09:13:08;;;;;;;9.00;6.63;;;1.60;99.90;;;;;;4900775;29;20194;-83
2021/04/14 09:15:56;;;;;;;11.60;7.17;;;1.00;99.90;;;;;;4900102;29;20210;-84
2021/04/14 09:18:34;;;;;;;12.97;6.83;;;1.00;99.90;;;;;;4899985;29;20179;-86
2021/04/14 09:21:18;;;;;;;13.13;7.60;;;1.10;99.90;;;;;;4899890;29;20675;-83
2021/04/14 09:24:07;;;;;;;13.47;6.67;;;1.10;99.90;;;;;;4900324;29;20591;-84
2021/04/14 09:26:38;;;;;;;10.90;6.70;;;1.10;99.90;;;;;;4900384;29;20248;-82
2021/04/14 09:29:25;;;;;;;11.67;6.77;;;1.10;99.90;;;;;;4898767;29;20639;-83
2021/04/14 09:31:53;;;;;;;11.03;7.27;;;1.10;99.90;;;;;;4899846;29;20183;-82
2021/04/14 09:34:31;;;;;;;9.37;6.97;;;1.70;99.90;;;;;;4898815;29;20614;-81
2021/04/14 09:37:17;;;;;;;13.67;7.47;;;1.00;99.90;;;;;;4898547;29;20774;-84
2021/04/14 09:39:46;;;;;;;8.83;6.67;;;1.00;99.90;;;;;;4897961;29;20666;-84
2021/04/14 09:42:24;;;;;;;11.63;8.03;;;1.10;99.90;;;;;;4886082;29;20617;-82
2021/04/14 09:44:55;;;;;;;9.90;6.53;;;2.00;99.90;;;;;;4899237;29;20291;-80
2021/04/14 09:47:23;;;;;;;13.57;7.67;;;2.50;99.90;;;;;;4883671;29;20292;-82
2021/04/14 09:49:51;;;;;;;9.07;6.93;;;1.90;99.90;;;;;;4900142;29;20181;-83
2021/04/14 09:52:31;;;;;;;11.67;7.97;;;2.10;99.90;;;;;;4899573;29;20191;-83
2021/04/14 09:55:21;;;;;;;14.07;8.87;;;2.50;99.90;;;;;;4899610;29;20221;-81
2021/04/14 09:57:50;;;;;;;12.17;7.50;;;1.10;99.90;;;;;;4880517;29;20221;-80
2021/04/14 10:00:28;;;;;;;9.63;7.40;;;1.30;99.90;;;;;;4881489;29;20183;-83
2021/04/14 10:03:19;;;;;;;11.37;7.60;;;1.20;99.90;;;;;;4879557;29;20553;-82
2021/04/14 10:05:45;;;;;;;11.43;7.60;;;2.70;99.90;;;;;;4880884;29;20573;-84
2021/04/14 10:08:16;;;;;;;14.13;8.67;;;1.20;99.90;;;;;;4880521;29;20189;-82
2021/04/14 10:10:47;;;;;;;14.77;9.20;;;1.20;99.90;;;;;;4881702;29;20225;-81
2021/04/14 10:13:18;;;;;;;12.30;8.57;;;1.30;99.90;;;;;;4881892;29;20261;-83
2021/04/14 10:15:47;;;;;;;9.53;6.80;;;3.10;99.90;;;;;;4865016;29;20218;-82
2021/04/14 10:18:25;;;;;;;12.00;7.47;;;1.20;99.90;;;;;;4881493;29;20183;-82
2021/04/14 10:20:53;;;;;;;11.33;8.10;;;1.20;99.90;;;;;;4895314;29;20181;-83
2021/04/14 10:23:22;;;;;;;9.07;6.10;;;1.30;99.90;;;;;;4900169;29;20547;-84
2021/04/14 10:25:50;;;;;;;11.33;6.97;;;1.20;99.90;;;;;;4883462;29;20287;-81
2021/04/14 10:28:15;;;;;;;10.70;7.77;;;1.30;99.90;;;;;;4899645;29;20213;-82
2021/04/14 10:30:45;;;;;;;12.57;7.00;;;1.30;99.90;;;;;;4898338;29;20556;-84
2021/04/14 10:33:21;;;;;;;9.77;7.40;;;1.50;99.90;;;;;;4898919;29;20184;-84
2021/04/14 10:35:50;;;;;;;8.17;5.70;;;3.00;99.90;;;;;;4897121;29;20354;-83
2021/04/14 10:38:30;;;;;;;10.83;6.77;;;1.90;99.90;;;;;;4889260;29;20242;-84
2021/04/14 10:40:56;;;;;;;8.10;6.33;;;1.30;99.90;;;;;;4893248;29;20185;-85
2021/04/14 10:43:25;;;;;;;12.00;6.97;;;1.30;99.90;;;;;;4897824;29;20272;-85
2021/04/14 10:46:04;;;;;;;8.90;6.07;;;2.30;99.90;;;;;;4898244;29;20189;-83
2021/04/14 10:48:31;;;;;;;10.80;5.93;;;1.40;99.90;;;;;;4898053;29;20246;-83
2021/04/14 10:51:19;;;;;;;10.03;7.03;;;2.70;99.90;;;;;;4894133;29;20193;-84
2021/04/14 10:53:50;;;;;;;7.30;5.67;;;1.50;99.90;;;;;;4897592;29;20183;-84
2021/04/14 10:56:41;;;;;;;10.50;7.07;;;1.50;99.90;;;;;;4898373;29;20292;-84
2021/04/14 10:59:17;;;;;;;11.70;7.20;;;1.40;99.90;;;;;;4902066;29;20185;-83
2021/04/14 11:01:45;;;;;;;10.73;6.20;;;1.40;99.90;;;;;;4902714;29;20235;-83
2021/04/14 11:04:32;;;;;;;7.87;6.27;;;1.40;99.90;;;;;;4901290;29;20180;-82
2021/04/14 11:07:05;;;;;;;11.47;6.83;;;2.20;99.90;;;;;;4902695;29;20181;-83
2021/04/14 11:09:35;;;;;;;9.33;7.00;;;1.30;99.90;;;;;;4900123;29;20751;-83
2021/04/14 11:12:10;;;;;;;11.47;7.90;;;1.30;99.90;;;;;;4900347;29;20275;-81
2021/04/14 11:14:42;;;;;;;8.87;6.70;;;1.30;99.90;;;;;;4896971;29;20218;-82
2021/04/14 11:17:14;;;;;;;9.47;6.87;;;1.30;99.90;;;;;;4898551;29;20275;-82
2021/04/14 11:19:43;;;;;;;11.97;7.70;;;1.30;99.90;;;;;;4895499;29;20197;-84
2021/04/14 11:22:11;;;;;;;9.30;6.33;;;1.30;99.90;;;;;;4890771;29;20658;-83
2021/04/14 11:24:49;;;;;;;11.23;7.77;;;1.90;99.90;;;;;;4901087;29;20279;-84
2021/04/14 11:27:28;;;;;;;13.27;6.63;;;1.90;99.90;;;;;;4900700;29;20213;-86
2021/04/14 11:30:13;;;;;;;10.57;7.27;;;1.30;99.90;;;;;;4899899;29;20551;-88
2021/04/14 11:32:39;;;;;;;9.53;6.97;;;1.30;99.90;;;;;;4898603;29;20218;-85
2021/04/14 11:35:08;;;;;;;12.33;7.97;;;1.60;99.90;;;;;;4900861;29;20757;-84
2021/04/14 11:37:37;;;;;;;8.63;6.80;;;1.30;99.90;;;;;;4900852;29;20191;-84
2021/04/14 11:40:20;;;;;;;7.67;6.23;;;1.30;99.90;;;;;;4899489;29;20648;-83
2021/04/14 11:42:58;;;;;;;9.23;6.13;;;1.30;99.90;;;;;;4884110;29;20723;-86
2021/04/14 11:45:30;;;;;;;9.73;6.93;;;1.40;99.90;;;;;;4882341;29;20190;-84
2021/04/14 11:48:10;;;;;;;11.23;6.83;;;1.30;99.90;;;;;;4883147;29;20228;-84
2021/04/14 11:50:37;;;;;;;12.80;8.03;;;1.30;99.90;;;;;;4905490;29;20271;-85
2021/04/14 11:53:08;;;;;;;9.90;7.47;;;1.30;99.90;;;;;;4891411;29;20184;-84
2021/04/14 11:55:36;;;;;;;12.27;6.80;;;1.30;99.90;;;;;;4898248;29;20236;-83
2021/04/14 11:58:08;;;;;;;9.90;6.43;;;2.30;99.90;;;;;;4899000;29;20191;-84
2021/04/14 12:00:37;;;;;;;8.43;6.87;;;1.40;99.90;;;;;;4907058;29;20214;-84
2021/04/14 12:03:29;;;;;;;11.13;7.30;;;2.50;99.90;;;;;;4899640;29;20189;-84
2021/04/14 12:05:58;;;;;;;11.70;7.60;;;1.30;99.90;;;;;;4898161;29;20226;-84
2021/04/14 12:08:25;;;;;;;10.43;7.53;;;1.40;99.90;;;;;;4899741;29;20682;-84
2021/04/14 12:10:51;;;;;;;15.70;9.57;;;1.50;99.90;;;;;;4898513;29;20236;-84
2021/04/14 12:13:17;;;;;;;12.77;8.27;;;1.40;99.90;;;;;;4883086;29;20192;-85
2021/04/14 12:15:43;;;;;;;11.37;7.80;;;1.40;99.90;;;;;;4900070;29;20226;-84
2021/04/14 12:18:09;;;;;;;11.80;6.90;;;2.50;99.90;;;;;;4899160;29;20612;-84
2021/04/14 12:20:34;;;;;;;13.40;8.50;;;1.90;99.90;;;;;;4899081;29;20197;-84
2021/04/14 12:23:00;;;;;;;13.30;8.50;;;2.30;99.90;;;;;;4898546;29;20557;-84
2021/04/14 12:25:26;;;;;;;13.97;7.93;;;1.40;99.90;;;;;;4899763;29;20267;-84
2021/04/14 12:27:52;;;;;;;16.03;8.40;;;2.60;99.90;;;;;;4898613;29;20663;-84
2021/04/14 12:30:20;;;;;;;13.23;8.33;;;1.50;99.90;;;;;;4899551;29;20195;-83
2021/04/14 12:32:46;;;;;;;14.20;8.83;;;1.50;99.90;;;;;;4898904;29;20552;-84
2021/04/14 12:35:12;;;;;;;13.20;8.57;;;1.70;99.90;;;;;;4898416;29;20218;-84
2021/04/14 12:37:38;;;;;;;12.53;7.53;;;1.50;99.90;;;;;;4897788;29;20189;-84
2021/04/14 12:40:04;;;;;;;12.77;7.63;;;1.50;99.90;;;;;;4899223;29;20195;-84
2021/04/14 12:42:32;;;;;;;12.37;8.40;;;1.50;99.90;;;;;;4898724;29;20280;-84
2021/04/14 12:45:01;;;;;;;13.47;8.70;;;2.40;99.90;;;;;;4900436;29;20220;-84
2021/04/14 12:47:28;;;;;;;10.70;7.53;;;1.50;99.90;;;;;;4898346;29;20189;-84
2021/04/14 12:49:55;;;;;;;16.80;9.17;;;1.50;99.90;;;;;;4898095;29;20662;-84
2021/04/14 12:52:35;;;;;;;17.43;10.97;;;1.50;99.90;;;;;;4881472;29;20228;-85
2021/04/14 12:55:10;;;;;;;13.57;9.90;;;2.40;99.90;;;;;;4898801;29;20212;-83
2021/04/14 12:57:39;;;;;;;15.07;8.60;;;1.60;99.90;;;;;;4889953;29;20196;-84
2021/04/14 13:00:10;;;;;;;17.70;10.77;;;1.60;99.90;;;;;;4904349;29;20183;-84
2021/04/14 13:03:19;;;;;;;12.63;9.27;;;1.60;99.90;;;;;;4903265;29;20190;-85
2021/04/14 13:05:48;;;;;;;14.60;8.57;;;1.60;99.90;;;;;;4907741;29;20671;-87